sensor_id;sensor_type;location;lat;lon;timestamp;temperature;humidity
68977;SHT31;56029;52.568;13.588;2024-03-02T00:00:51;6.55;99.99
68977;SHT31;56029;52.568;13.588;2024-03-02T00:03:38;6.60;99.99
68977;SHT31;56029;52.568;13.588;2024-03-02T00:06:04;6.60;99.99
68977;SHT31;56029;52.568;13.588;2024-03-02T00:08:30;6.63;99.99
68977;SHT31;56029;52.568;13.588;2024-03-02T00:10:59;6.63;99.99
68977;SHT31;56029;52.568;13.588;2024-03-02T00:13:25;6.64;99.99
68977;SHT31;56029;52.568;13.588;2024-03-02T00:15:52;6.67;99.99
68977;SHT31;56029;52.568;13.588;2024-03-02T00:18:39;6.67;99.99
68977;SHT31;56029;52.568;13.588;2024-03-02T00:21:06;6.68;99.99
68977;SHT31;56029;52.568;13.588;2024-03-02T00:23:33;6.67;99.99
68977;SHT31;56029;52.568;13.588;2024-03-02T00:25:59;6.70;99.99
68977;SHT31;56029;52.568;13.588;2024-03-02T00:28:30;6.68;99.99
68977;SHT31;56029;52.568;13.588;2024-03-02T00:31:06;6.68;99.99
68977;SHT31;56029;52.568;13.588;2024-03-02T00:33:39;6.70;99.99
68977;SHT31;56029;52.568;13.588;2024-03-02T00:36:06;6.70;99.99
68977;SHT31;56029;52.568;13.588;2024-03-02T00:38:33;6.67;99.99
68977;SHT31;56029;52.568;13.588;2024-03-02T00:41:00;6.70;99.99
68977;SHT31;56029;52.568;13.588;2024-03-02T00:43:37;6.73;99.99
68977;SHT31;56029;52.568;13.588;2024-03-02T00:46:03;6.71;99.99
68977;SHT31;56029;52.568;13.588;2024-03-02T00:48:30;6.77;99.99
68977;SHT31;56029;52.568;13.588;2024-03-02T00:50:55;6.71;99.99
68977;SHT31;56029;52.568;13.588;2024-03-02T00:53:23;6.75;99.99
68977;SHT31;56029;52.568;13.588;2024-03-02T00:55:49;6.75;99.99
68977;SHT31;56029;52.568;13.588;2024-03-02T00:58:14;6.74;99.99
68977;SHT31;56029;52.568;13.588;2024-03-02T01:00:40;6.77;99.99
68977;SHT31;56029;52.568;13.588;2024-03-02T01:03:05;6.78;99.99
68977;SHT31;56029;52.568;13.588;2024-03-02T01:05:31;6.80;99.99
68977;SHT31;56029;52.568;13.588;2024-03-02T01:07:57;6.80;99.99
68977;SHT31;56029;52.568;13.588;2024-03-02T01:10:22;6.82;99.99
68977;SHT31;56029;52.568;13.588;2024-03-02T01:12:48;6.82;99.99
68977;SHT31;56029;52.568;13.588;2024-03-02T01:15:13;6.82;99.99
68977;SHT31;56029;52.568;13.588;2024-03-02T01:17:39;6.87;99.99
68977;SHT31;56029;52.568;13.588;2024-03-02T01:20:08;6.85;99.99
68977;SHT31;56029;52.568;13.588;2024-03-02T01:22:33;6.87;99.99
68977;SHT31;56029;52.568;13.588;2024-03-02T01:24:59;6.91;99.99
68977;SHT31;56029;52.568;13.588;2024-03-02T01:27:24;6.88;99.99
68977;SHT31;56029;52.568;13.588;2024-03-02T01:29:50;6.88;99.99
68977;SHT31;56029;52.568;13.588;2024-03-02T01:32:16;6.91;99.99
68977;SHT31;56029;52.568;13.588;2024-03-02T01:34:41;6.89;99.99
68977;SHT31;56029;52.568;13.588;2024-03-02T01:37:07;6.92;99.99
68977;SHT31;56029;52.568;13.588;2024-03-02T01:39:32;6.98;99.99
68977;SHT31;56029;52.568;13.588;2024-03-02T01:41:58;6.96;99.99
68977;SHT31;56029;52.568;13.588;2024-03-02T01:44:23;6.98;99.99
68977;SHT31;56029;52.568;13.588;2024-03-02T01:46:49;7.02;99.99
68977;SHT31;56029;52.568;13.588;2024-03-02T01:49:15;7.02;99.99
68977;SHT31;56029;52.568;13.588;2024-03-02T01:51:40;6.99;99.99
68977;SHT31;56029;52.568;13.588;2024-03-02T01:54:06;6.95;99.99
68977;SHT31;56029;52.568;13.588;2024-03-02T01:56:32;6.91;99.99
68977;SHT31;56029;52.568;13.588;2024-03-02T01:58:58;6.88;99.99
68977;SHT31;56029;52.568;13.588;2024-03-02T02:01:24;6.84;99.99
68977;SHT31;56029;52.568;13.588;2024-03-02T02:03:49;6.87;99.99
68977;SHT31;56029;52.568;13.588;2024-03-02T02:06:15;6.88;99.99
68977;SHT31;56029;52.568;13.588;2024-03-02T02:08:40;6.87;99.99
68977;SHT31;56029;52.568;13.588;2024-03-02T02:11:06;6.89;99.99
68977;SHT31;56029;52.568;13.588;2024-03-02T02:13:32;6.92;99.99
68977;SHT31;56029;52.568;13.588;2024-03-02T02:16:05;6.98;99.99
68977;SHT31;56029;52.568;13.588;2024-03-02T02:18:31;7.03;99.99
68977;SHT31;56029;52.568;13.588;2024-03-02T02:20:56;7.03;99.99
68977;SHT31;56029;52.568;13.588;2024-03-02T02:23:22;7.08;99.99
68977;SHT31;56029;52.568;13.588;2024-03-02T02:25:47;7.09;99.99
68977;SHT31;56029;52.568;13.588;2024-03-02T02:28:13;7.09;99.99
68977;SHT31;56029;52.568;13.588;2024-03-02T02:30:39;7.12;99.99
68977;SHT31;56029;52.568;13.588;2024-03-02T02:33:04;7.15;99.99
68977;SHT31;56029;52.568;13.588;2024-03-02T02:35:30;7.15;99.99
68977;SHT31;56029;52.568;13.588;2024-03-02T02:37:56;7.19;99.99
68977;SHT31;56029;52.568;13.588;2024-03-02T02:40:22;7.22;99.99
68977;SHT31;56029;52.568;13.588;2024-03-02T02:42:48;7.27;99.99
68977;SHT31;56029;52.568;13.588;2024-03-02T02:45:14;7.30;99.99
68977;SHT31;56029;52.568;13.588;2024-03-02T02:47:40;7.33;99.99
68977;SHT31;56029;52.568;13.588;2024-03-02T02:50:07;7.34;99.99
68977;SHT31;56029;52.568;13.588;2024-03-02T02:52:37;7.37;99.99
68977;SHT31;56029;52.568;13.588;2024-03-02T02:55:04;7.37;99.99
68977;SHT31;56029;52.568;13.588;2024-03-02T02:57:29;7.43;99.99
68977;SHT31;56029;52.568;13.588;2024-03-02T02:59:55;7.49;99.99
68977;SHT31;56029;52.568;13.588;2024-03-02T03:02:20;7.50;99.99
68977;SHT31;56029;52.568;13.588;2024-03-02T03:04:46;7.57;99.99
68977;SHT31;56029;52.568;13.588;2024-03-02T03:07:12;7.59;99.99
68977;SHT31;56029;52.568;13.588;2024-03-02T03:09:37;7.69;99.99
68977;SHT31;56029;52.568;13.588;2024-03-02T03:12:03;7.71;99.99
68977;SHT31;56029;52.568;13.588;2024-03-02T03:14:29;7.74;99.99
68977;SHT31;56029;52.568;13.588;2024-03-02T03:16:54;7.75;99.99
68977;SHT31;56029;52.568;13.588;2024-03-02T03:19:20;7.81;99.99
68977;SHT31;56029;52.568;13.588;2024-03-02T03:21:45;7.80;99.99
68977;SHT31;56029;52.568;13.588;2024-03-02T03:24:11;7.82;99.99
68977;SHT31;56029;52.568;13.588;2024-03-02T03:26:36;7.84;99.99
68977;SHT31;56029;52.568;13.588;2024-03-02T03:29:02;7.87;99.99
68977;SHT31;56029;52.568;13.588;2024-03-02T03:31:28;7.87;99.99
68977;SHT31;56029;52.568;13.588;2024-03-02T03:33:54;7.87;99.99
68977;SHT31;56029;52.568;13.588;2024-03-02T03:36:20;7.91;99.99
68977;SHT31;56029;52.568;13.588;2024-03-02T03:38:46;7.92;99.99
68977;SHT31;56029;52.568;13.588;2024-03-02T03:41:11;7.92;99.99
68977;SHT31;56029;52.568;13.588;2024-03-02T03:43:37;7.95;99.99
68977;SHT31;56029;52.568;13.588;2024-03-02T03:46:03;7.97;99.99
68977;SHT31;56029;52.568;13.588;2024-03-02T03:48:28;7.98;99.99
68977;SHT31;56029;52.568;13.588;2024-03-02T03:50:54;7.98;99.99
68977;SHT31;56029;52.568;13.588;2024-03-02T03:53:19;7.94;99.99
68977;SHT31;56029;52.568;13.588;2024-03-02T03:55:45;7.99;99.99
68977;SHT31;56029;52.568;13.588;2024-03-02T03:58:11;7.98;99.99
68977;SHT31;56029;52.568;13.588;2024-03-02T04:00:36;8.01;99.99
68977;SHT31;56029;52.568;13.588;2024-03-02T04:03:02;8.02;99.99
68977;SHT31;56029;52.568;13.588;2024-03-02T04:05:27;8.02;99.99
68977;SHT31;56029;52.568;13.588;2024-03-02T04:07:53;8.02;99.99
68977;SHT31;56029;52.568;13.588;2024-03-02T04:10:19;8.03;99.99
68977;SHT31;56029;52.568;13.588;2024-03-02T04:12:44;8.03;99.99
68977;SHT31;56029;52.568;13.588;2024-03-02T04:15:10;8.06;99.99
68977;SHT31;56029;52.568;13.588;2024-03-02T04:17:35;8.06;99.99
68977;SHT31;56029;52.568;13.588;2024-03-02T04:20:01;8.08;99.99
68977;SHT31;56029;52.568;13.588;2024-03-02T04:22:27;8.05;99.99
68977;SHT31;56029;52.568;13.588;2024-03-02T04:24:53;8.09;99.99
68977;SHT31;56029;52.568;13.588;2024-03-02T04:27:19;8.08;99.99
68977;SHT31;56029;52.568;13.588;2024-03-02T04:29:44;8.06;99.99
68977;SHT31;56029;52.568;13.588;2024-03-02T04:32:10;8.06;99.99
68977;SHT31;56029;52.568;13.588;2024-03-02T04:34:35;8.08;99.99
68977;SHT31;56029;52.568;13.588;2024-03-02T04:37:01;8.06;99.99
68977;SHT31;56029;52.568;13.588;2024-03-02T04:39:26;8.08;99.99
68977;SHT31;56029;52.568;13.588;2024-03-02T04:41:52;8.08;99.99
68977;SHT31;56029;52.568;13.588;2024-03-02T04:44:17;8.09;99.99
68977;SHT31;56029;52.568;13.588;2024-03-02T04:46:43;8.11;99.99
68977;SHT31;56029;52.568;13.588;2024-03-02T04:49:09;8.08;99.99
68977;SHT31;56029;52.568;13.588;2024-03-02T04:51:34;8.09;99.99
68977;SHT31;56029;52.568;13.588;2024-03-02T04:54:00;8.08;99.99
68977;SHT31;56029;52.568;13.588;2024-03-02T04:56:25;8.11;99.99
68977;SHT31;56029;52.568;13.588;2024-03-02T04:58:51;8.12;99.99
68977;SHT31;56029;52.568;13.588;2024-03-02T05:01:16;8.15;99.99
68977;SHT31;56029;52.568;13.588;2024-03-02T05:03:42;8.13;99.99
68977;SHT31;56029;52.568;13.588;2024-03-02T05:06:08;8.15;99.99
68977;SHT31;56029;52.568;13.588;2024-03-02T05:08:33;8.12;99.99
68977;SHT31;56029;52.568;13.588;2024-03-02T05:10:59;8.11;99.99
68977;SHT31;56029;52.568;13.588;2024-03-02T05:13:25;8.13;99.99
68977;SHT31;56029;52.568;13.588;2024-03-02T05:15:50;8.13;99.99
68977;SHT31;56029;52.568;13.588;2024-03-02T05:18:16;8.15;99.99
68977;SHT31;56029;52.568;13.588;2024-03-02T05:20:41;8.15;99.99
68977;SHT31;56029;52.568;13.588;2024-03-02T05:23:07;8.18;99.99
68977;SHT31;56029;52.568;13.588;2024-03-02T05:25:32;8.18;99.99
68977;SHT31;56029;52.568;13.588;2024-03-02T05:27:58;8.21;99.99
68977;SHT31;56029;52.568;13.588;2024-03-02T05:30:24;8.19;99.99
68977;SHT31;56029;52.568;13.588;2024-03-02T05:32:49;8.19;99.99
68977;SHT31;56029;52.568;13.588;2024-03-02T05:35:15;8.21;99.99
68977;SHT31;56029;52.568;13.588;2024-03-02T05:37:40;8.25;99.99
68977;SHT31;56029;52.568;13.588;2024-03-02T05:40:06;8.25;99.99
68977;SHT31;56029;52.568;13.588;2024-03-02T05:42:32;8.29;99.99
68977;SHT31;56029;52.568;13.588;2024-03-02T05:44:58;8.35;99.99
68977;SHT31;56029;52.568;13.588;2024-03-02T05:47:23;8.39;99.99
68977;SHT31;56029;52.568;13.588;2024-03-02T05:49:49;8.42;99.99
68977;SHT31;56029;52.568;13.588;2024-03-02T05:52:14;8.45;99.99
68977;SHT31;56029;52.568;13.588;2024-03-02T05:54:40;8.45;99.99
68977;SHT31;56029;52.568;13.588;2024-03-02T05:57:06;8.48;99.99
68977;SHT31;56029;52.568;13.588;2024-03-02T05:59:31;8.49;99.99
68977;SHT31;56029;52.568;13.588;2024-03-02T06:01:57;8.52;99.99
68977;SHT31;56029;52.568;13.588;2024-03-02T06:04:22;8.53;99.99
68977;SHT31;56029;52.568;13.588;2024-03-02T06:06:48;8.56;99.99
68977;SHT31;56029;52.568;13.588;2024-03-02T06:09:13;8.52;99.99
68977;SHT31;56029;52.568;13.588;2024-03-02T06:11:40;8.54;99.99
68977;SHT31;56029;52.568;13.588;2024-03-02T06:14:07;8.54;99.99
68977;SHT31;56029;52.568;13.588;2024-03-02T06:16:33;8.56;99.99
68977;SHT31;56029;52.568;13.588;2024-03-02T06:18:59;8.53;99.99
68977;SHT31;56029;52.568;13.588;2024-03-02T06:21:26;8.54;99.99
68977;SHT31;56029;52.568;13.588;2024-03-02T06:23:51;8.54;99.99
68977;SHT31;56029;52.568;13.588;2024-03-02T06:26:17;8.56;99.99
68977;SHT31;56029;52.568;13.588;2024-03-02T06:28:43;8.57;99.99
68977;SHT31;56029;52.568;13.588;2024-03-02T06:31:09;8.60;99.99
68977;SHT31;56029;52.568;13.588;2024-03-02T06:33:34;8.57;99.99
68977;SHT31;56029;52.568;13.588;2024-03-02T06:36:00;8.59;99.99
68977;SHT31;56029;52.568;13.588;2024-03-02T06:38:26;8.63;99.99
68977;SHT31;56029;52.568;13.588;2024-03-02T06:40:51;8.63;99.99
68977;SHT31;56029;52.568;13.588;2024-03-02T06:43:17;8.60;99.99
68977;SHT31;56029;52.568;13.588;2024-03-02T06:45:43;8.64;99.99
68977;SHT31;56029;52.568;13.588;2024-03-02T06:48:08;8.69;99.99
68977;SHT31;56029;52.568;13.588;2024-03-02T06:50:34;8.67;99.99
68977;SHT31;56029;52.568;13.588;2024-03-02T06:52:59;8.71;99.99
68977;SHT31;56029;52.568;13.588;2024-03-02T06:55:25;8.74;99.99
68977;SHT31;56029;52.568;13.588;2024-03-02T06:57:51;8.76;99.99
68977;SHT31;56029;52.568;13.588;2024-03-02T07:00:17;8.79;99.99
68977;SHT31;56029;52.568;13.588;2024-03-02T07:02:43;8.83;99.99
68977;SHT31;56029;52.568;13.588;2024-03-02T07:05:09;8.84;99.99
68977;SHT31;56029;52.568;13.588;2024-03-02T07:07:34;8.85;99.99
68977;SHT31;56029;52.568;13.588;2024-03-02T07:10:01;8.87;99.99
68977;SHT31;56029;52.568;13.588;2024-03-02T07:12:26;8.91;99.99
68977;SHT31;56029;52.568;13.588;2024-03-02T07:14:52;8.91;99.99
68977;SHT31;56029;52.568;13.588;2024-03-02T07:17:17;8.90;99.99
68977;SHT31;56029;52.568;13.588;2024-03-02T07:19:43;8.96;99.99
68977;SHT31;56029;52.568;13.588;2024-03-02T07:22:08;9.00;99.99
68977;SHT31;56029;52.568;13.588;2024-03-02T07:24:44;8.98;99.99
68977;SHT31;56029;52.568;13.588;2024-03-02T07:27:09;9.03;99.99
68977;SHT31;56029;52.568;13.588;2024-03-02T07:29:36;9.07;99.99
68977;SHT31;56029;52.568;13.588;2024-03-02T07:32:01;9.07;99.99
68977;SHT31;56029;52.568;13.588;2024-03-02T07:34:27;9.08;99.99
68977;SHT31;56029;52.568;13.588;2024-03-02T07:36:52;9.11;99.99
68977;SHT31;56029;52.568;13.588;2024-03-02T07:39:18;9.11;99.99
68977;SHT31;56029;52.568;13.588;2024-03-02T07:41:45;9.12;99.99
68977;SHT31;56029;52.568;13.588;2024-03-02T07:44:11;9.11;99.99
68977;SHT31;56029;52.568;13.588;2024-03-02T07:46:36;9.07;99.99
68977;SHT31;56029;52.568;13.588;2024-03-02T07:49:02;9.12;99.99
68977;SHT31;56029;52.568;13.588;2024-03-02T07:51:27;9.10;99.99
68977;SHT31;56029;52.568;13.588;2024-03-02T07:53:53;9.12;99.99
68977;SHT31;56029;52.568;13.588;2024-03-02T07:56:19;9.12;99.99
68977;SHT31;56029;52.568;13.588;2024-03-02T07:58:45;9.15;99.99
68977;SHT31;56029;52.568;13.588;2024-03-02T08:01:10;9.18;99.99
68977;SHT31;56029;52.568;13.588;2024-03-02T08:03:37;9.21;99.99
68977;SHT31;56029;52.568;13.588;2024-03-02T08:06:02;9.21;99.99
68977;SHT31;56029;52.568;13.588;2024-03-02T08:08:28;9.24;99.99
68977;SHT31;56029;52.568;13.588;2024-03-02T08:10:54;9.25;99.99
68977;SHT31;56029;52.568;13.588;2024-03-02T08:13:19;9.31;99.99
68977;SHT31;56029;52.568;13.588;2024-03-02T08:15:45;9.32;99.99
68977;SHT31;56029;52.568;13.588;2024-03-02T08:18:11;9.32;99.99
68977;SHT31;56029;52.568;13.588;2024-03-02T08:20:36;9.38;99.99
68977;SHT31;56029;52.568;13.588;2024-03-02T08:23:02;9.42;99.99
68977;SHT31;56029;52.568;13.588;2024-03-02T08:25:27;9.43;99.99
68977;SHT31;56029;52.568;13.588;2024-03-02T08:27:53;9.49;99.99
68977;SHT31;56029;52.568;13.588;2024-03-02T08:30:19;9.52;99.99
68977;SHT31;56029;52.568;13.588;2024-03-02T08:32:44;9.50;99.99
68977;SHT31;56029;52.568;13.588;2024-03-02T08:35:10;9.56;99.99
68977;SHT31;56029;52.568;13.588;2024-03-02T08:37:38;9.58;99.99
68977;SHT31;56029;52.568;13.588;2024-03-02T08:40:06;9.59;99.99
68977;SHT31;56029;52.568;13.588;2024-03-02T08:42:31;9.65;99.99
68977;SHT31;56029;52.568;13.588;2024-03-02T08:44:57;9.66;99.99
68977;SHT31;56029;52.568;13.588;2024-03-02T08:47:23;9.69;99.99
68977;SHT31;56029;52.568;13.588;2024-03-02T08:49:48;9.69;99.99
68977;SHT31;56029;52.568;13.588;2024-03-02T08:52:14;9.69;99.99
68977;SHT31;56029;52.568;13.588;2024-03-02T08:54:39;9.70;99.99
68977;SHT31;56029;52.568;13.588;2024-03-02T08:57:05;9.70;99.99
68977;SHT31;56029;52.568;13.588;2024-03-02T08:59:31;9.73;99.99
68977;SHT31;56029;52.568;13.588;2024-03-02T09:01:57;9.73;99.99
68977;SHT31;56029;52.568;13.588;2024-03-02T09:04:23;9.79;99.99
68977;SHT31;56029;52.568;13.588;2024-03-02T09:06:48;9.80;99.99
68977;SHT31;56029;52.568;13.588;2024-03-02T09:09:14;9.87;99.99
68977;SHT31;56029;52.568;13.588;2024-03-02T09:11:40;9.90;99.99
68977;SHT31;56029;52.568;13.588;2024-03-02T09:14:05;9.91;99.99
68977;SHT31;56029;52.568;13.588;2024-03-02T09:16:31;9.94;99.87
68977;SHT31;56029;52.568;13.588;2024-03-02T09:18:57;9.97;99.93
68977;SHT31;56029;52.568;13.588;2024-03-02T09:21:22;10.00;99.43
68977;SHT31;56029;52.568;13.588;2024-03-02T09:23:48;9.97;99.19
68977;SHT31;56029;52.568;13.588;2024-03-02T09:26:14;10.07;99.46
68977;SHT31;56029;52.568;13.588;2024-03-02T09:28:43;10.13;99.22
68977;SHT31;56029;52.568;13.588;2024-03-02T09:31:08;10.22;99.34
68977;SHT31;56029;52.568;13.588;2024-03-02T09:33:34;10.31;98.84
68977;SHT31;56029;52.568;13.588;2024-03-02T09:36:00;10.38;98.72
68977;SHT31;56029;52.568;13.588;2024-03-02T09:38:25;10.46;98.63
68977;SHT31;56029;52.568;13.588;2024-03-02T09:40:51;10.54;98.21
68977;SHT31;56029;52.568;13.588;2024-03-02T09:43:16;10.59;98.20
68977;SHT31;56029;52.568;13.588;2024-03-02T09:45:42;10.66;97.40
68977;SHT31;56029;52.568;13.588;2024-03-02T09:48:08;10.77;97.60
68977;SHT31;56029;52.568;13.588;2024-03-02T09:50:34;10.89;96.50
68977;SHT31;56029;52.568;13.588;2024-03-02T09:52:59;11.09;96.98
68977;SHT31;56029;52.568;13.588;2024-03-02T09:55:25;11.37;96.51
68977;SHT31;56029;52.568;13.588;2024-03-02T09:57:51;11.44;95.09
68977;SHT31;56029;52.568;13.588;2024-03-02T10:00:17;11.53;94.53
68977;SHT31;56029;52.568;13.588;2024-03-02T10:02:43;11.57;95.28
68977;SHT31;56029;52.568;13.588;2024-03-02T10:05:09;11.62;94.16
68977;SHT31;56029;52.568;13.588;2024-03-02T10:07:35;11.68;93.95
68977;SHT31;56029;52.568;13.588;2024-03-02T10:10:14;11.74;93.72
68977;SHT31;56029;52.568;13.588;2024-03-02T10:12:39;11.72;94.01
68977;SHT31;56029;52.568;13.588;2024-03-02T10:15:05;11.75;93.51
68977;SHT31;56029;52.568;13.588;2024-03-02T10:17:31;11.83;93.73
68977;SHT31;56029;52.568;13.588;2024-03-02T10:19:57;11.86;92.84
68977;SHT31;56029;52.568;13.588;2024-03-02T10:22:23;11.96;92.64
68977;SHT31;56029;52.568;13.588;2024-03-02T10:24:49;12.02;92.31
68977;SHT31;56029;52.568;13.588;2024-03-02T10:27:22;12.06;93.15
68977;SHT31;56029;52.568;13.588;2024-03-02T10:29:49;12.12;92.51
68977;SHT31;56029;52.568;13.588;2024-03-02T10:32:15;12.13;92.37
68977;SHT31;56029;52.568;13.588;2024-03-02T10:34:45;12.13;90.82
68977;SHT31;56029;52.568;13.588;2024-03-02T10:37:11;12.09;90.98
68977;SHT31;56029;52.568;13.588;2024-03-02T10:39:37;12.15;90.88
68977;SHT31;56029;52.568;13.588;2024-03-02T10:42:03;12.19;92.00
68977;SHT31;56029;52.568;13.588;2024-03-02T10:44:30;12.22;91.28
68977;SHT31;56029;52.568;13.588;2024-03-02T10:46:56;12.22;91.07
68977;SHT31;56029;52.568;13.588;2024-03-02T10:49:23;12.20;90.50
68977;SHT31;56029;52.568;13.588;2024-03-02T10:51:50;12.25;91.66
68977;SHT31;56029;52.568;13.588;2024-03-02T10:54:15;12.32;91.39
68977;SHT31;56029;52.568;13.588;2024-03-02T10:56:43;12.30;90.77
68977;SHT31;56029;52.568;13.588;2024-03-02T11:01:39;12.32;91.16
68977;SHT31;56029;52.568;13.588;2024-03-02T11:04:08;12.33;90.42
68977;SHT31;56029;52.568;13.588;2024-03-02T11:06:36;12.34;91.34
68977;SHT31;56029;52.568;13.588;2024-03-02T11:09:05;12.34;90.37
68977;SHT31;56029;52.568;13.588;2024-03-02T11:11:32;12.36;90.35
68977;SHT31;56029;52.568;13.588;2024-03-02T11:14:01;12.41;89.90
68977;SHT31;56029;52.568;13.588;2024-03-02T11:16:36;12.44;89.85
68977;SHT31;56029;52.568;13.588;2024-03-02T11:19:06;12.37;89.11
68977;SHT31;56029;52.568;13.588;2024-03-02T11:21:37;12.33;89.38
68977;SHT31;56029;52.568;13.588;2024-03-02T11:26:47;12.39;88.62
68977;SHT31;56029;52.568;13.588;2024-03-02T11:32:02;12.37;88.31
68977;SHT31;56029;52.568;13.588;2024-03-02T11:34:31;12.36;87.79
68977;SHT31;56029;52.568;13.588;2024-03-02T11:36:57;12.33;86.87
68977;SHT31;56029;52.568;13.588;2024-03-02T11:39:23;12.39;87.33
68977;SHT31;56029;52.568;13.588;2024-03-02T11:41:49;12.33;87.19
68977;SHT31;56029;52.568;13.588;2024-03-02T11:44:15;12.36;86.86
68977;SHT31;56029;52.568;13.588;2024-03-02T11:46:41;12.47;87.44
68977;SHT31;56029;52.568;13.588;2024-03-02T11:49:07;12.53;86.21
68977;SHT31;56029;52.568;13.588;2024-03-02T11:51:34;12.57;85.81
68977;SHT31;56029;52.568;13.588;2024-03-02T11:54:00;12.73;86.64
68977;SHT31;56029;52.568;13.588;2024-03-02T11:56:30;12.81;86.59
68977;SHT31;56029;52.568;13.588;2024-03-02T11:58:56;12.91;85.82
68977;SHT31;56029;52.568;13.588;2024-03-02T12:01:22;12.97;84.70
68977;SHT31;56029;52.568;13.588;2024-03-02T12:03:47;13.07;85.77
68977;SHT31;56029;52.568;13.588;2024-03-02T12:06:14;13.18;85.07
68977;SHT31;56029;52.568;13.588;2024-03-02T12:08:40;13.19;84.09
68977;SHT31;56029;52.568;13.588;2024-03-02T12:11:06;13.40;83.93
68977;SHT31;56029;52.568;13.588;2024-03-02T12:13:32;13.42;84.62
68977;SHT31;56029;52.568;13.588;2024-03-02T12:15:58;13.50;83.71
68977;SHT31;56029;52.568;13.588;2024-03-02T12:18:24;13.57;83.85
68977;SHT31;56029;52.568;13.588;2024-03-02T12:20:50;13.63;83.21
68977;SHT31;56029;52.568;13.588;2024-03-02T12:23:16;13.62;82.29
68977;SHT31;56029;52.568;13.588;2024-03-02T12:25:42;13.59;82.79
68977;SHT31;56029;52.568;13.588;2024-03-02T12:28:08;13.59;82.49
68977;SHT31;56029;52.568;13.588;2024-03-02T12:30:35;13.59;81.34
68977;SHT31;56029;52.568;13.588;2024-03-02T12:33:01;13.60;82.38
68977;SHT31;56029;52.568;13.588;2024-03-02T12:35:27;13.62;81.70
68977;SHT31;56029;52.568;13.588;2024-03-02T12:37:54;13.71;82.14
68977;SHT31;56029;52.568;13.588;2024-03-02T12:40:20;13.76;81.42
68977;SHT31;56029;52.568;13.588;2024-03-02T12:42:46;13.70;81.33
68977;SHT31;56029;52.568;13.588;2024-03-02T12:45:15;13.73;82.35
68977;SHT31;56029;52.568;13.588;2024-03-02T12:47:41;13.78;81.76
68977;SHT31;56029;52.568;13.588;2024-03-02T12:50:08;13.91;81.13
68977;SHT31;56029;52.568;13.588;2024-03-02T12:52:34;13.88;80.05
68977;SHT31;56029;52.568;13.588;2024-03-02T12:55:01;13.96;80.61
68977;SHT31;56029;52.568;13.588;2024-03-02T12:57:28;14.04;81.20
68977;SHT31;56029;52.568;13.588;2024-03-02T13:00:01;14.15;80.15
68977;SHT31;56029;52.568;13.588;2024-03-02T13:02:28;14.28;80.29
68977;SHT31;56029;52.568;13.588;2024-03-02T13:04:55;14.29;79.43
68977;SHT31;56029;52.568;13.588;2024-03-02T13:07:20;14.38;78.90
68977;SHT31;56029;52.568;13.588;2024-03-02T13:09:46;14.28;79.56
68977;SHT31;56029;52.568;13.588;2024-03-02T13:12:12;14.45;78.39
68977;SHT31;56029;52.568;13.588;2024-03-02T13:14:37;14.59;78.95
68977;SHT31;56029;52.568;13.588;2024-03-02T13:17:03;14.66;78.80
68977;SHT31;56029;52.568;13.588;2024-03-02T13:19:29;14.72;77.01
68977;SHT31;56029;52.568;13.588;2024-03-02T13:21:54;14.79;77.75
68977;SHT31;56029;52.568;13.588;2024-03-02T13:24:20;14.72;76.39
68977;SHT31;56029;52.568;13.588;2024-03-02T13:26:46;14.75;76.91
68977;SHT31;56029;52.568;13.588;2024-03-02T13:29:11;14.69;76.17
68977;SHT31;56029;52.568;13.588;2024-03-02T13:31:37;14.63;76.80
68977;SHT31;56029;52.568;13.588;2024-03-02T13:34:03;14.59;77.07
68977;SHT31;56029;52.568;13.588;2024-03-02T13:36:28;14.52;77.77
68977;SHT31;56029;52.568;13.588;2024-03-02T13:38:54;14.48;76.30
68977;SHT31;56029;52.568;13.588;2024-03-02T13:41:19;14.44;76.49
68977;SHT31;56029;52.568;13.588;2024-03-02T13:43:45;14.42;77.60
68977;SHT31;56029;52.568;13.588;2024-03-02T13:46:10;14.39;77.18
68977;SHT31;56029;52.568;13.588;2024-03-02T13:48:36;14.44;77.49
68977;SHT31;56029;52.568;13.588;2024-03-02T13:51:02;14.46;77.70
68977;SHT31;56029;52.568;13.588;2024-03-02T13:53:27;14.45;78.42
68977;SHT31;56029;52.568;13.588;2024-03-02T13:55:53;14.44;77.77
68977;SHT31;56029;52.568;13.588;2024-03-02T13:58:18;14.49;77.76
68977;SHT31;56029;52.568;13.588;2024-03-02T14:00:44;14.51;78.58
68977;SHT31;56029;52.568;13.588;2024-03-02T14:03:10;14.52;78.47
68977;SHT31;56029;52.568;13.588;2024-03-02T14:05:36;14.48;76.57
68977;SHT31;56029;52.568;13.588;2024-03-02T14:08:01;14.51;76.55
68977;SHT31;56029;52.568;13.588;2024-03-02T14:10:27;14.48;77.12
68977;SHT31;56029;52.568;13.588;2024-03-02T14:12:53;14.49;78.13
68977;SHT31;56029;52.568;13.588;2024-03-02T14:15:18;14.45;76.93
68977;SHT31;56029;52.568;13.588;2024-03-02T14:17:44;14.41;76.91
68977;SHT31;56029;52.568;13.588;2024-03-02T14:20:10;14.39;77.50
68977;SHT31;56029;52.568;13.588;2024-03-02T14:22:36;14.34;75.67
68977;SHT31;56029;52.568;13.588;2024-03-02T14:25:02;14.35;76.34
68977;SHT31;56029;52.568;13.588;2024-03-02T14:27:28;14.38;76.74
68977;SHT31;56029;52.568;13.588;2024-03-02T14:29:54;14.31;76.40
68977;SHT31;56029;52.568;13.588;2024-03-02T14:32:20;14.32;76.75
68977;SHT31;56029;52.568;13.588;2024-03-02T14:34:45;14.36;78.28
68977;SHT31;56029;52.568;13.588;2024-03-02T14:37:13;14.36;78.60
68977;SHT31;56029;52.568;13.588;2024-03-02T14:39:39;14.32;78.38
68977;SHT31;56029;52.568;13.588;2024-03-02T14:42:05;14.27;79.21
68977;SHT31;56029;52.568;13.588;2024-03-02T14:44:30;14.22;79.65
68977;SHT31;56029;52.568;13.588;2024-03-02T14:46:56;14.17;79.92
68977;SHT31;56029;52.568;13.588;2024-03-02T14:49:21;14.14;80.40
68977;SHT31;56029;52.568;13.588;2024-03-02T14:51:47;14.18;80.30
68977;SHT31;56029;52.568;13.588;2024-03-02T14:54:13;14.18;80.50
68977;SHT31;56029;52.568;13.588;2024-03-02T14:56:38;14.08;79.75
68977;SHT31;56029;52.568;13.588;2024-03-02T14:59:04;14.00;79.88
68977;SHT31;56029;52.568;13.588;2024-03-02T15:01:30;13.86;80.33
68977;SHT31;56029;52.568;13.588;2024-03-02T15:03:56;13.77;81.82
68977;SHT31;56029;52.568;13.588;2024-03-02T15:06:22;13.73;82.00
68977;SHT31;56029;52.568;13.588;2024-03-02T15:08:47;13.65;81.85
68977;SHT31;56029;52.568;13.588;2024-03-02T15:11:14;13.56;82.60
68977;SHT31;56029;52.568;13.588;2024-03-02T15:13:40;13.48;82.70
68977;SHT31;56029;52.568;13.588;2024-03-02T15:16:06;13.42;82.32
68977;SHT31;56029;52.568;13.588;2024-03-02T15:18:31;13.35;82.79
68977;SHT31;56029;52.568;13.588;2024-03-02T15:20:57;13.28;83.29
68977;SHT31;56029;52.568;13.588;2024-03-02T15:23:23;13.22;83.59
68977;SHT31;56029;52.568;13.588;2024-03-02T15:25:49;13.05;83.40